VVCT

Details ICAO VVCT (VCA)
Name CAN THO
Region Vietnam
Timezone Asia/Ho_Chi_Minh (UTC+7.0)
Plans Departing 9
Arriving 15
Stats Elevation 9 ft / 3 m (AMSL)
Location 10.085121° 105.711922°
Runways 1
Magnetic Variation 0.384° W
Sunrise 2017-12-13 23:06:54 UTC / 2017-12-14 06:06:54 Local
Sunset 2017-12-14 10:39:18 UTC / 2017-12-14 17:39:18 Local
Advertisement - Login to hide

Runways

ID Width Length Bearing (true) Bearing (mag) Surface Threshold Offset Overrun Length
06 100 ft / 30 m 7,891 ft / 2,405 m 59.86° 60.24° Asphalt 0 ft / 0 m 505 ft / 154 m
24 100 ft / 30 m 7,891 ft / 2,405 m 239.86° 240.24° Asphalt 0 ft / 0 m 460 ft / 140 m

Map

Weather


0- 5 10 15 20 25 30 35+ Temperature / ° C

Clouds and Precipitation
Forecast for 2017-12-14 06:00 UTC. Updated 2 hours ago

Ground ~20,000 ft ~40,000 ft Winds

METAR

VVCT 140230Z VRB02KT 9999 SCT015 SCT050 28/24 Q1013 NOSIG

TAF

TAF VVCT 132300Z 1400/1424 14008KT 9999 SCT015 SCT040
Warning: Do not use this data for real-world aviation or navigation. No guarantee of current accuracy is given.